createdAt,value
2022-07-27T00:00:14.715Z,9.35
2022-07-27T00:02:16.583Z,9.02
2022-07-27T00:04:21.461Z,8.10
2022-07-27T00:06:23.455Z,8.40
2022-07-27T00:08:25.374Z,8.30
2022-07-27T00:10:27.496Z,9.50
2022-07-27T00:12:29.214Z,10.40
2022-07-27T00:14:31.185Z,9.85
2022-07-27T00:16:33.139Z,13.73
2022-07-27T00:18:35.069Z,10.20
2022-07-27T00:20:38.034Z,9.88
2022-07-27T00:22:39.882Z,10.25
2022-07-27T00:24:42.266Z,10.32
2022-07-27T00:26:44.162Z,10.02
2022-07-27T00:28:46.179Z,11.00
2022-07-27T00:30:48.387Z,10.35
2022-07-27T00:32:50.531Z,10.20
2022-07-27T00:34:52.315Z,11.05
2022-07-27T00:36:54.200Z,9.07
2022-07-27T00:38:56.054Z,9.68
2022-07-27T00:40:58.250Z,11.75
2022-07-27T00:43:00.102Z,10.10
2022-07-27T00:45:02.451Z,10.13
2022-07-27T00:47:04.611Z,10.45
2022-07-27T00:49:06.837Z,11.05
2022-07-27T00:51:08.942Z,11.82
2022-07-27T00:53:10.942Z,11.50
2022-07-27T00:55:12.809Z,10.30
2022-07-27T00:57:16.579Z,10.30
2022-07-27T00:59:20.343Z,11.77
2022-07-27T01:01:22.241Z,11.20
2022-07-27T01:03:29.837Z,10.07
2022-07-27T01:05:36.485Z,10.70
2022-07-27T01:07:40.282Z,11.95
2022-07-27T01:09:58.469Z,12.52
2022-07-27T01:12:00.837Z,10.68
2022-07-27T01:14:02.675Z,11.15
2022-07-27T01:16:08.530Z,11.45
2022-07-27T01:18:27.966Z,10.50
2022-07-27T01:20:29.895Z,12.32
2022-07-27T01:22:31.977Z,10.00
2022-07-27T01:24:37.157Z,10.23
2022-07-27T01:26:39.217Z,11.05
2022-07-27T01:28:43.710Z,8.20
2022-07-27T01:30:45.564Z,8.13
2022-07-27T01:32:47.371Z,7.00
2022-07-27T01:34:49.415Z,6.30
2022-07-27T01:36:51.146Z,6.50
2022-07-27T01:38:53.053Z,7.03
2022-07-27T01:40:55.538Z,5.85
2022-07-27T01:42:57.505Z,6.22
2022-07-27T01:44:59.311Z,4.65
2022-07-27T01:47:01.196Z,4.72
2022-07-27T01:49:03.549Z,4.47
2022-07-27T01:51:05.460Z,4.63
2022-07-27T01:53:09.208Z,5.55
2022-07-27T01:55:12.739Z,5.80
2022-07-27T01:57:14.933Z,4.07
2022-07-27T01:59:17.190Z,3.83
2022-07-27T02:01:19.363Z,9.18
2022-07-27T02:03:21.357Z,4.28
2022-07-27T02:05:23.218Z,4.10
2022-07-27T02:07:25.147Z,3.65
2022-07-27T02:09:27.013Z,3.60
2022-07-27T02:11:47.745Z,5.00
2022-07-27T02:13:50.277Z,4.43
2022-07-27T02:15:54.840Z,6.65
2022-07-27T02:17:56.753Z,4.10
2022-07-27T02:19:59.098Z,4.57
2022-07-27T02:22:00.929Z,4.30
2022-07-27T02:24:02.647Z,6.10
2022-07-27T02:26:06.847Z,3.90
2022-07-27T02:28:09.183Z,3.63
2022-07-27T02:30:12.823Z,3.80
2022-07-27T02:32:14.611Z,4.05
2022-07-27T02:34:16.401Z,3.30
2022-07-27T02:36:18.238Z,4.68
2022-07-27T02:38:20.141Z,5.30
2022-07-27T02:40:21.979Z,3.28
2022-07-27T02:42:23.913Z,3.63
2022-07-27T02:44:25.718Z,3.20
2022-07-27T02:46:27.656Z,2.97
2022-07-27T02:48:31.485Z,2.72
2022-07-27T02:50:33.261Z,2.72
2022-07-27T02:52:36.806Z,3.17
2022-07-27T02:54:39.160Z,3.17
2022-07-27T02:56:40.972Z,2.92
2022-07-27T02:58:42.755Z,2.97
2022-07-27T03:00:44.720Z,5.00
2022-07-27T03:02:50.088Z,3.78
2022-07-27T03:04:51.892Z,3.65
2022-07-27T03:06:53.944Z,3.63
2022-07-27T03:08:55.903Z,3.42
2022-07-27T03:10:57.629Z,3.03
2022-07-27T03:12:59.791Z,3.15
2022-07-27T03:15:01.926Z,6.53
2022-07-27T03:17:03.681Z,4.80
2022-07-27T03:19:06.322Z,3.90
2022-07-27T03:21:08.440Z,3.42
2022-07-27T03:23:10.223Z,3.72
2022-07-27T03:25:12.340Z,4.22
2022-07-27T03:27:14.302Z,3.38
2022-07-27T03:29:16.289Z,5.75
2022-07-27T03:31:18.249Z,3.70
2022-07-27T03:33:20.301Z,4.35
2022-07-27T03:35:22.216Z,4.57
2022-07-27T03:37:24.012Z,4.40
2022-07-27T03:39:25.788Z,3.30
2022-07-27T03:41:27.574Z,4.63
2022-07-27T03:43:29.912Z,4.40
2022-07-27T03:45:31.694Z,4.55
2022-07-27T03:47:33.481Z,4.53
2022-07-27T03:49:35.258Z,5.20
2022-07-27T03:51:37.173Z,4.53
2022-07-27T03:53:39.423Z,5.50
2022-07-27T03:55:41.262Z,3.70
2022-07-27T03:57:43.077Z,3.95
2022-07-27T03:59:44.968Z,4.40
2022-07-27T04:01:47.587Z,4.28
2022-07-27T04:03:49.962Z,4.55
2022-07-27T04:05:52.063Z,3.28
2022-07-27T04:07:54.751Z,5.40
2022-07-27T04:09:57.020Z,3.63
2022-07-27T04:11:59.638Z,8.65
2022-07-27T04:14:01.509Z,3.45
2022-07-27T04:16:03.508Z,4.80
2022-07-27T04:18:05.523Z,3.75
2022-07-27T04:20:08.150Z,3.22
2022-07-27T04:22:10.367Z,2.75
2022-07-27T04:24:12.238Z,2.97
2022-07-27T04:26:14.173Z,3.55
2022-07-27T04:28:16.186Z,3.30
2022-07-27T04:30:18.068Z,2.38
2022-07-27T04:32:20.184Z,2.30
2022-07-27T04:34:21.946Z,2.70
2022-07-27T04:36:23.764Z,2.88
2022-07-27T04:38:25.615Z,3.22
2022-07-27T04:40:31.854Z,2.80
2022-07-27T04:42:33.740Z,3.33
2022-07-27T04:44:35.497Z,4.38
2022-07-27T04:46:37.514Z,2.72
2022-07-27T04:48:39.614Z,4.22
2022-07-27T04:50:45.234Z,3.53
2022-07-27T04:52:47.154Z,3.08
2022-07-27T04:54:53.266Z,2.88
2022-07-27T04:56:55.069Z,4.40
2022-07-27T04:58:56.857Z,3.63
2022-07-27T05:00:58.680Z,2.63
2022-07-27T05:03:00.830Z,2.35
2022-07-27T05:05:02.617Z,2.90
2022-07-27T05:07:04.482Z,3.40
2022-07-27T05:09:06.473Z,3.22
2022-07-27T05:11:08.313Z,4.20
2022-07-27T05:13:10.503Z,2.85
2022-07-27T05:15:12.318Z,2.90
2022-07-27T05:17:14.121Z,4.68
2022-07-27T05:19:16.167Z,2.67
2022-07-27T05:21:17.982Z,2.97
2022-07-27T05:23:20.450Z,2.00
2022-07-27T05:25:25.502Z,3.15
2022-07-27T05:27:27.681Z,2.63
2022-07-27T05:29:29.508Z,3.03
2022-07-27T05:31:31.461Z,3.05
2022-07-27T05:33:33.334Z,2.92
2022-07-27T05:35:35.145Z,3.08
2022-07-27T05:37:37.110Z,2.80
2022-07-27T05:39:42.213Z,2.65
2022-07-27T05:41:44.051Z,3.45
2022-07-27T05:43:45.857Z,3.85
2022-07-27T05:45:47.841Z,2.33
2022-07-27T05:47:50.070Z,2.75
2022-07-27T05:49:52.734Z,4.20
2022-07-27T05:51:54.561Z,4.25
2022-07-27T05:53:56.301Z,3.60
2022-07-27T05:55:59.715Z,2.47
2022-07-27T05:58:01.655Z,3.38
2022-07-27T06:00:08.806Z,2.63
2022-07-27T06:02:16.100Z,3.35
2022-07-27T06:04:17.897Z,2.10
2022-07-27T06:06:38.361Z,2.40
2022-07-27T06:08:40.700Z,4.05
2022-07-27T06:10:42.786Z,3.53
2022-07-27T06:12:45.641Z,4.63
2022-07-27T06:14:51.191Z,2.17
2022-07-27T06:16:53.388Z,4.85
2022-07-27T06:18:55.214Z,3.08
2022-07-27T06:20:56.958Z,4.47
2022-07-27T06:23:00.865Z,3.15
2022-07-27T06:25:02.645Z,3.05
2022-07-27T06:27:04.591Z,2.55
2022-07-27T06:29:09.763Z,3.67
2022-07-27T06:31:13.234Z,2.50
2022-07-27T06:33:16.162Z,2.92
2022-07-27T06:35:19.216Z,2.75
2022-07-27T06:37:21.198Z,2.70
2022-07-27T06:39:22.985Z,3.92
2022-07-27T06:41:24.703Z,3.83
2022-07-27T06:43:30.797Z,2.45
2022-07-27T06:45:32.809Z,3.63
2022-07-27T06:47:34.711Z,2.78
2022-07-27T06:49:36.619Z,2.33
2022-07-27T06:51:38.763Z,3.25
2022-07-27T06:53:40.981Z,2.60
2022-07-27T06:55:42.803Z,2.60
2022-07-27T06:57:46.365Z,3.65
2022-07-27T06:59:48.493Z,4.63
2022-07-27T07:01:50.634Z,4.50
2022-07-27T07:03:52.444Z,2.58
2022-07-27T07:05:54.462Z,5.13
2022-07-27T07:07:56.356Z,3.78
2022-07-27T07:09:58.316Z,3.60
2022-07-27T07:12:00.069Z,3.63
2022-07-27T07:14:01.950Z,3.13
2022-07-27T07:16:04.010Z,3.35
2022-07-27T07:18:07.161Z,4.60
2022-07-27T07:20:09.446Z,2.55
2022-07-27T07:22:11.648Z,4.13
2022-07-27T07:24:13.970Z,2.80
2022-07-27T07:26:15.843Z,4.70
2022-07-27T07:28:22.081Z,2.33
2022-07-27T07:30:24.030Z,3.70
2022-07-27T07:32:32.993Z,3.10
2022-07-27T07:34:35.347Z,2.90
2022-07-27T07:36:37.129Z,3.35
2022-07-27T07:38:38.986Z,2.50
2022-07-27T07:40:44.058Z,3.40
2022-07-27T07:42:55.591Z,2.90
2022-07-27T07:44:57.567Z,3.80
2022-07-27T07:47:00.479Z,3.88
2022-07-27T07:49:02.644Z,3.35
2022-07-27T07:51:04.443Z,5.30
2022-07-27T07:53:06.130Z,3.20
2022-07-27T07:55:08.557Z,2.72
2022-07-27T07:57:10.480Z,3.15
2022-07-27T07:59:12.698Z,4.07
2022-07-27T08:01:14.884Z,3.08
2022-07-27T08:03:17.838Z,3.13
2022-07-27T08:05:20.253Z,3.15
2022-07-27T08:07:22.193Z,3.47
2022-07-27T08:09:26.885Z,2.80
2022-07-27T08:11:28.702Z,3.08
2022-07-27T08:13:30.513Z,4.30
2022-07-27T08:15:35.973Z,2.78
2022-07-27T08:17:38.186Z,3.38
2022-07-27T08:19:40.480Z,3.72
2022-07-27T08:21:42.294Z,5.38
2022-07-27T08:23:44.117Z,3.83
2022-07-27T08:25:46.313Z,3.03
2022-07-27T08:27:48.057Z,3.20
2022-07-27T08:29:51.956Z,6.00
2022-07-27T08:31:54.046Z,2.78
2022-07-27T08:33:58.130Z,4.43
2022-07-27T08:35:59.948Z,3.92
2022-07-27T08:38:04.146Z,2.58
2022-07-27T08:40:38.903Z,2.67
2022-07-27T08:42:28.388Z,3.85
2022-07-27T08:44:31.907Z,3.15
2022-07-27T08:46:36.025Z,3.60
2022-07-27T08:48:40.359Z,4.55
2022-07-27T08:50:42.912Z,2.97
2022-07-27T08:52:44.914Z,2.85
2022-07-27T08:54:47.616Z,3.10
2022-07-27T08:56:49.454Z,5.82
2022-07-27T08:58:52.021Z,4.47
2022-07-27T09:00:54.590Z,4.50
2022-07-27T09:02:57.685Z,4.07
2022-07-27T09:04:59.783Z,4.18
2022-07-27T09:07:02.010Z,3.40
2022-07-27T09:09:04.475Z,4.03
2022-07-27T09:11:17.983Z,3.55
2022-07-27T09:13:27.139Z,3.38
2022-07-27T09:15:34.523Z,3.50
2022-07-27T09:17:48.362Z,5.32
2022-07-27T09:19:54.959Z,4.10
2022-07-27T09:21:56.749Z,6.10
2022-07-27T09:24:29.690Z,3.30
2022-07-27T09:26:36.371Z,3.53
2022-07-27T09:28:38.739Z,3.42
2022-07-27T09:30:43.811Z,3.38
2022-07-27T09:32:58.316Z,3.05
2022-07-27T09:35:14.943Z,3.85
2022-07-27T09:37:25.321Z,3.58
2022-07-27T09:39:28.314Z,3.65
2022-07-27T09:41:45.768Z,3.17
2022-07-27T09:46:41.165Z,3.83
2022-07-27T09:48:43.235Z,3.30
2022-07-27T09:51:02.493Z,3.35
2022-07-27T09:53:41.295Z,3.30
2022-07-27T09:55:38.413Z,4.80
2022-07-27T09:57:58.950Z,4.82
2022-07-27T10:00:16.480Z,5.45
2022-07-27T10:02:18.292Z,3.03
2022-07-27T10:04:20.292Z,3.05
2022-07-27T10:06:25.162Z,4.30
2022-07-27T10:08:28.016Z,3.97
2022-07-27T10:10:29.874Z,4.20
2022-07-27T10:12:32.577Z,4.55
2022-07-27T10:14:35.302Z,3.83
2022-07-27T10:16:40.052Z,3.63
2022-07-27T10:19:00.433Z,3.97
2022-07-27T10:21:09.706Z,3.33
2022-07-27T10:23:27.329Z,4.07
2022-07-27T10:25:37.296Z,4.00
2022-07-27T10:27:40.071Z,4.13
2022-07-27T10:29:41.965Z,5.35
2022-07-27T10:31:56.165Z,6.53
2022-07-27T10:34:00.776Z,4.60
2022-07-27T10:36:04.220Z,3.78
2022-07-27T10:38:15.637Z,6.05
2022-07-27T10:40:34.749Z,3.30
2022-07-27T10:42:36.619Z,3.53
2022-07-27T10:44:56.259Z,3.40
2022-07-27T10:47:01.817Z,3.65
2022-07-27T10:49:19.806Z,3.15
2022-07-27T10:51:35.182Z,3.67
2022-07-27T10:53:55.372Z,5.63
2022-07-27T10:56:01.685Z,3.60
2022-07-27T10:58:03.389Z,3.47
2022-07-27T11:00:13.641Z,3.25
2022-07-27T11:02:38.055Z,3.58
2022-07-27T11:04:45.691Z,3.67
2022-07-27T11:07:22.956Z,3.03
2022-07-27T11:11:34.646Z,4.00
2022-07-27T11:13:38.795Z,4.28
2022-07-27T11:15:55.784Z,3.75
2022-07-27T11:18:04.938Z,2.80
2022-07-27T11:20:07.691Z,3.55
2022-07-27T11:22:28.357Z,4.10
2022-07-27T11:24:30.796Z,4.13
2022-07-27T11:26:46.989Z,3.00
2022-07-27T11:28:48.900Z,2.75
2022-07-27T11:30:51.111Z,3.20
2022-07-27T11:32:54.219Z,2.97
2022-07-27T11:34:56.012Z,5.18
2022-07-27T11:37:01.973Z,3.55
2022-07-27T11:39:06.130Z,4.32
2022-07-27T11:41:16.913Z,2.67
2022-07-27T11:43:33.818Z,2.90
2022-07-27T11:45:39.821Z,4.63
2022-07-27T11:47:41.641Z,2.70
2022-07-27T11:49:43.855Z,2.20
2022-07-27T11:51:48.242Z,2.63
2022-07-27T11:53:59.743Z,3.00
2022-07-27T11:56:04.820Z,3.63
2022-07-27T11:58:06.600Z,2.55
2022-07-27T12:00:08.976Z,2.72
2022-07-27T12:02:20.743Z,2.00
2022-07-27T12:04:31.241Z,2.30
2022-07-27T12:06:34.482Z,3.38
2022-07-27T12:08:36.318Z,2.45
2022-07-27T12:10:38.121Z,2.55
2022-07-27T12:12:39.893Z,2.03
2022-07-27T12:14:46.267Z,2.03
2022-07-27T12:16:48.231Z,2.80
2022-07-27T12:18:50.138Z,2.97
2022-07-27T12:20:52.116Z,2.92
2022-07-27T12:22:54.839Z,3.13
2022-07-27T12:24:58.827Z,2.47
2022-07-27T12:27:14.288Z,1.80
2022-07-27T12:29:17.997Z,1.90
2022-07-27T12:31:19.919Z,3.53
2022-07-27T12:33:32.928Z,4.40
2022-07-27T12:35:46.557Z,4.57
2022-07-27T12:37:55.659Z,2.40
2022-07-27T12:39:58.306Z,3.38
2022-07-27T12:42:04.827Z,3.45
2022-07-27T12:44:18.445Z,2.78
2022-07-27T12:46:20.332Z,3.55
2022-07-27T12:48:25.611Z,8.27
2022-07-27T12:50:28.843Z,5.30
2022-07-27T12:52:31.317Z,3.90
2022-07-27T12:54:34.187Z,4.65
2022-07-27T12:56:35.979Z,2.00
2022-07-27T12:58:37.966Z,3.40
2022-07-27T13:00:40.156Z,4.00
2022-07-27T13:02:42.634Z,1.75
2022-07-27T13:04:44.572Z,4.78
2022-07-27T13:06:47.494Z,2.53
2022-07-27T13:08:49.274Z,3.80
2022-07-27T13:10:52.415Z,3.92
2022-07-27T13:12:54.582Z,4.72
2022-07-27T13:14:56.427Z,2.08
2022-07-27T13:16:58.270Z,2.35
2022-07-27T13:19:00.018Z,1.88
2022-07-27T13:21:02.135Z,5.00
2022-07-27T13:23:07.879Z,3.85
2022-07-27T13:25:15.661Z,2.42
2022-07-27T13:27:18.517Z,2.47
2022-07-27T13:29:20.323Z,4.28
2022-07-27T13:31:22.358Z,1.88
2022-07-27T13:33:24.738Z,1.60
2022-07-27T13:35:27.257Z,2.05
2022-07-27T13:37:29.124Z,1.63
2022-07-27T13:39:30.960Z,1.80
2022-07-27T13:41:37.258Z,5.95
2022-07-27T13:43:39.155Z,1.70
2022-07-27T13:45:43.145Z,3.17
2022-07-27T13:47:45.355Z,2.25
2022-07-27T13:49:47.397Z,3.70
2022-07-27T13:51:49.687Z,3.05
2022-07-27T13:53:51.555Z,1.60
2022-07-27T13:55:53.294Z,2.65
2022-07-27T13:57:55.144Z,1.75
2022-07-27T13:59:59.799Z,3.08
2022-07-27T14:02:01.997Z,3.13
2022-07-27T14:04:05.780Z,1.85
2022-07-27T14:06:08.480Z,2.60
2022-07-27T14:08:10.985Z,1.50
2022-07-27T14:10:31.548Z,3.00
2022-07-27T14:12:33.633Z,2.10
2022-07-27T14:14:35.511Z,2.58
2022-07-27T14:16:38.876Z,1.70
2022-07-27T14:18:40.865Z,3.42
2022-07-27T14:20:42.813Z,2.28
2022-07-27T14:22:45.023Z,1.88
2022-07-27T14:24:46.978Z,2.58
2022-07-27T14:26:48.802Z,4.43
2022-07-27T14:28:52.468Z,2.45
2022-07-27T14:30:55.001Z,2.80
2022-07-27T14:32:56.964Z,1.83
2022-07-27T14:34:58.765Z,2.00
2022-07-27T14:37:00.663Z,3.08
2022-07-27T14:39:02.403Z,3.28
2022-07-27T14:41:04.774Z,5.18
2022-07-27T14:43:08.574Z,1.80
2022-07-27T14:45:12.246Z,2.38
2022-07-27T14:47:14.489Z,1.85
2022-07-27T14:49:16.432Z,3.95
2022-07-27T14:51:18.281Z,1.73
2022-07-27T14:53:20.275Z,2.45
2022-07-27T14:55:22.132Z,4.40
2022-07-27T14:57:24.255Z,3.10
2022-07-27T14:59:26.030Z,3.00
2022-07-27T15:01:27.916Z,1.77
2022-07-27T15:03:29.728Z,2.63
2022-07-27T15:05:33.256Z,4.13
2022-07-27T15:07:51.764Z,2.50
2022-07-27T15:09:53.664Z,3.33
2022-07-27T15:11:56.575Z,2.55
2022-07-27T15:13:58.354Z,8.77
2022-07-27T15:16:00.241Z,3.30
2022-07-27T15:18:02.133Z,3.03
2022-07-27T15:20:06.449Z,3.00
2022-07-27T15:22:08.205Z,1.75
2022-07-27T15:24:10.007Z,4.22
2022-07-27T15:26:13.226Z,3.45
2022-07-27T15:28:15.549Z,2.22
2022-07-27T15:30:17.330Z,2.33
2022-07-27T15:32:19.120Z,2.63
2022-07-27T15:34:21.392Z,2.45
2022-07-27T15:36:31.848Z,2.63
2022-07-27T15:38:35.431Z,2.30
2022-07-27T15:40:37.334Z,2.58
2022-07-27T15:42:39.130Z,2.72
2022-07-27T15:44:41.574Z,2.25
2022-07-27T15:46:43.505Z,1.70
2022-07-27T15:48:45.729Z,2.85
2022-07-27T15:50:51.880Z,5.28
2022-07-27T15:52:53.692Z,2.03
2022-07-27T15:54:55.936Z,3.97
2022-07-27T15:56:58.232Z,2.33
2022-07-27T15:59:00.017Z,2.28
2022-07-27T16:01:02.428Z,2.15
2022-07-27T16:03:05.776Z,2.25
2022-07-27T16:05:08.456Z,2.30
2022-07-27T16:07:10.357Z,3.00
2022-07-27T16:09:12.470Z,4.03
2022-07-27T16:11:15.020Z,3.30
2022-07-27T16:13:16.858Z,2.72
2022-07-27T16:15:18.798Z,2.38
2022-07-27T16:17:20.625Z,3.78
2022-07-27T16:19:22.510Z,2.53
2022-07-27T16:21:25.459Z,2.00
2022-07-27T16:23:27.536Z,4.70
2022-07-27T16:25:53.314Z,3.30
2022-07-27T16:27:51.682Z,2.90
2022-07-27T16:29:53.494Z,2.67
2022-07-27T16:31:58.322Z,4.15
2022-07-27T16:34:00.142Z,2.58
2022-07-27T16:36:02.240Z,2.85
2022-07-27T16:38:04.632Z,4.60
2022-07-27T16:40:06.868Z,4.13
2022-07-27T16:42:08.576Z,3.10
2022-07-27T16:44:10.426Z,2.42
2022-07-27T16:46:12.285Z,2.28
2022-07-27T16:48:14.231Z,3.45
2022-07-27T16:50:16.488Z,3.67
2022-07-27T16:52:18.364Z,3.78
2022-07-27T16:54:20.179Z,2.63
2022-07-27T16:56:22.083Z,1.98
2022-07-27T16:58:25.986Z,2.35
2022-07-27T17:00:27.936Z,2.70
2022-07-27T17:02:30.644Z,2.38
2022-07-27T17:04:32.582Z,2.67
2022-07-27T17:06:35.446Z,2.90
2022-07-27T17:08:37.341Z,10.05
2022-07-27T17:10:40.136Z,5.95
2022-07-27T17:12:42.999Z,2.42
2022-07-27T17:14:46.196Z,3.97
2022-07-27T17:16:52.296Z,3.15
2022-07-27T17:18:54.930Z,3.80
2022-07-27T17:20:56.899Z,2.30
2022-07-27T17:22:58.727Z,2.65
2022-07-27T17:25:00.499Z,2.53
2022-07-27T17:27:02.500Z,2.45
2022-07-27T17:29:05.610Z,2.53
2022-07-27T17:31:12.655Z,3.85
2022-07-27T17:33:14.605Z,3.08
2022-07-27T17:35:16.543Z,2.47
2022-07-27T17:37:18.459Z,2.80
2022-07-27T17:39:20.246Z,3.47
2022-07-27T17:41:24.995Z,2.15
2022-07-27T17:43:27.111Z,1.98
2022-07-27T17:45:28.991Z,2.35
2022-07-27T17:47:30.839Z,2.83
2022-07-27T17:49:32.904Z,4.03
2022-07-27T17:51:36.223Z,3.97
2022-07-27T17:53:38.332Z,5.20
2022-07-27T17:55:40.205Z,2.72
2022-07-27T17:57:42.099Z,2.75
2022-07-27T17:59:44.153Z,4.32
2022-07-27T18:01:48.327Z,31.08
2022-07-27T18:03:50.606Z,22.98
2022-07-27T18:05:52.552Z,84.82
2022-07-27T18:07:54.613Z,125.05
2022-07-27T18:09:58.324Z,141.35
2022-07-27T18:12:00.644Z,252.20
2022-07-27T18:14:02.418Z,277.02
2022-07-27T18:16:04.461Z,253.02
2022-07-27T18:18:06.733Z,190.90
2022-07-27T18:20:10.627Z,159.32
2022-07-27T18:22:12.338Z,122.28
2022-07-27T18:24:14.541Z,110.10
2022-07-27T18:26:16.642Z,90.82
2022-07-27T18:28:19.056Z,73.65
2022-07-27T18:30:20.921Z,57.47
2022-07-27T18:32:22.846Z,44.58
2022-07-27T18:34:24.631Z,32.92
2022-07-27T18:36:26.936Z,31.67
2022-07-27T18:38:28.685Z,27.13
2022-07-27T18:40:30.480Z,18.20
2022-07-27T18:42:32.369Z,15.77
2022-07-27T18:44:38.760Z,7.88
2022-07-27T18:46:41.673Z,5.00
2022-07-27T18:48:45.002Z,3.45
2022-07-27T18:50:47.032Z,6.75
2022-07-27T18:52:49.037Z,6.07
2022-07-27T18:54:50.871Z,3.28
2022-07-27T18:56:52.715Z,7.90
2022-07-27T18:58:54.838Z,3.95
2022-07-27T19:00:58.408Z,7.72
2022-07-27T19:03:00.348Z,4.43
2022-07-27T19:05:02.429Z,4.85
2022-07-27T19:07:06.438Z,3.15
2022-07-27T19:09:08.419Z,8.20
2022-07-27T19:11:10.517Z,5.38
2022-07-27T19:13:12.748Z,2.97
2022-07-27T19:15:14.537Z,3.03
2022-07-27T19:17:16.808Z,3.95
2022-07-27T19:19:23.161Z,4.20
2022-07-27T19:21:26.031Z,2.85
2022-07-27T19:23:27.866Z,2.67
2022-07-27T19:25:33.861Z,4.40
2022-07-27T19:27:38.433Z,4.10
2022-07-27T19:29:42.665Z,3.92
2022-07-27T19:31:44.593Z,3.92
2022-07-27T19:33:46.907Z,2.72
2022-07-27T19:35:50.687Z,3.65
2022-07-27T19:37:52.554Z,3.15
2022-07-27T19:40:02.518Z,4.28
2022-07-27T19:42:11.530Z,5.28
2022-07-27T19:44:13.341Z,2.97
2022-07-27T19:46:15.352Z,6.88
2022-07-27T19:48:17.879Z,2.53
2022-07-27T19:50:19.736Z,3.95
2022-07-27T19:52:21.630Z,4.97
2022-07-27T19:54:23.595Z,4.00
2022-07-27T19:56:25.399Z,6.63
2022-07-27T19:58:27.399Z,5.82
2022-07-27T20:00:30.215Z,6.00
2022-07-27T20:02:32.132Z,4.45
2022-07-27T20:04:37.248Z,2.72
2022-07-27T20:06:41.589Z,3.35
2022-07-27T20:08:43.567Z,4.18
2022-07-27T20:10:47.492Z,6.63
2022-07-27T20:12:49.416Z,3.00
2022-07-27T20:14:51.235Z,2.55
2022-07-27T20:16:53.313Z,2.78
2022-07-27T20:18:55.197Z,2.90
2022-07-27T20:20:57.890Z,3.85
2022-07-27T20:22:59.698Z,2.78
2022-07-27T20:25:02.372Z,4.70
2022-07-27T20:27:04.467Z,2.58
2022-07-27T20:29:06.347Z,3.70
2022-07-27T20:31:08.287Z,2.88
2022-07-27T20:33:10.245Z,5.72
2022-07-27T20:35:12.538Z,5.75
2022-07-27T20:37:14.539Z,3.10
2022-07-27T20:39:17.835Z,2.25
2022-07-27T20:41:19.760Z,2.85
2022-07-27T20:43:21.601Z,2.78
2022-07-27T20:45:23.410Z,2.78
2022-07-27T20:47:27.101Z,2.42
2022-07-27T20:49:31.655Z,4.78
2022-07-27T20:51:33.584Z,3.55
2022-07-27T20:53:35.707Z,2.53
2022-07-27T20:55:37.859Z,3.35
2022-07-27T20:57:39.907Z,2.92
2022-07-27T20:59:41.687Z,3.53
2022-07-27T21:01:43.852Z,3.30
2022-07-27T21:03:45.807Z,4.05
2022-07-27T21:05:47.863Z,2.83
2022-07-27T21:07:49.655Z,5.50
2022-07-27T21:09:51.432Z,5.63
2022-07-27T21:11:57.701Z,6.70
2022-07-27T21:14:00.536Z,7.15
2022-07-27T21:16:02.366Z,8.70
2022-07-27T21:18:04.349Z,8.63
2022-07-27T21:20:07.452Z,7.70
2022-07-27T21:22:09.497Z,6.05
2022-07-27T21:24:18.685Z,5.68
2022-07-27T21:26:21.002Z,4.32
2022-07-27T21:28:25.320Z,6.95
2022-07-27T21:30:27.694Z,5.90
2022-07-27T21:32:29.629Z,5.55
2022-07-27T21:34:31.428Z,6.20
2022-07-27T21:36:33.384Z,5.43
2022-07-27T21:38:35.665Z,4.32
2022-07-27T21:40:37.825Z,6.40
2022-07-27T21:42:39.704Z,4.38
2022-07-27T21:44:41.699Z,6.75
2022-07-27T21:46:43.649Z,6.70
2022-07-27T21:48:45.527Z,7.50
2022-07-27T21:50:47.867Z,5.15
2022-07-27T21:52:50.049Z,4.40
2022-07-27T21:54:52.238Z,6.53
2022-07-27T21:56:54.051Z,7.22
2022-07-27T21:58:56.119Z,5.03
2022-07-27T22:00:58.479Z,6.57
2022-07-27T22:03:00.320Z,7.20
2022-07-27T22:05:02.391Z,3.95
2022-07-27T22:07:05.001Z,5.78
2022-07-27T22:09:07.544Z,5.72
2022-07-27T22:11:10.349Z,4.75
2022-07-27T22:13:12.215Z,6.85
2022-07-27T22:15:13.991Z,4.40
2022-07-27T22:17:15.871Z,4.30
2022-07-27T22:19:18.086Z,3.10
2022-07-27T22:21:19.915Z,6.90
2022-07-27T22:23:23.665Z,9.27
2022-07-27T22:25:25.543Z,4.35
2022-07-27T22:27:27.632Z,5.57
2022-07-27T22:29:29.416Z,3.85
2022-07-27T22:31:31.204Z,3.47
2022-07-27T22:33:33.068Z,3.88
2022-07-27T22:35:34.972Z,4.35
2022-07-27T22:37:37.048Z,5.32
2022-07-27T22:39:38.766Z,3.72
2022-07-27T22:41:41.508Z,4.20
2022-07-27T22:43:43.298Z,3.55
2022-07-27T22:45:45.294Z,2.83
2022-07-27T22:47:47.177Z,3.88
2022-07-27T22:49:49.428Z,2.72
2022-07-27T22:51:52.912Z,3.00
2022-07-27T22:53:56.327Z,2.95
2022-07-27T22:55:58.687Z,3.72
2022-07-27T22:58:00.475Z,3.17
2022-07-27T23:00:04.892Z,5.13
2022-07-27T23:02:06.814Z,3.08
2022-07-27T23:04:08.789Z,3.17
2022-07-27T23:06:10.646Z,3.78
2022-07-27T23:08:12.491Z,2.78
2022-07-27T23:10:33.048Z,5.10
2022-07-27T23:12:34.783Z,3.53
2022-07-27T23:14:36.924Z,4.57
2022-07-27T23:16:39.190Z,4.00
2022-07-27T23:18:41.159Z,3.83
2022-07-27T23:20:43.353Z,3.45
2022-07-27T23:22:49.404Z,2.35
2022-07-27T23:24:51.432Z,2.63
2022-07-27T23:26:53.674Z,3.33
2022-07-27T23:28:55.931Z,3.10
2022-07-27T23:30:58.069Z,3.17
2022-07-27T23:32:59.943Z,3.42
2022-07-27T23:35:01.833Z,3.75
2022-07-27T23:37:03.591Z,2.90
2022-07-27T23:39:05.427Z,2.63
2022-07-27T23:41:07.268Z,3.15
2022-07-27T23:43:09.258Z,2.40
2022-07-27T23:45:11.628Z,3.17
2022-07-27T23:47:13.678Z,4.18
2022-07-27T23:49:15.655Z,5.50
2022-07-27T23:51:18.821Z,3.08
2022-07-27T23:53:21.402Z,3.10
2022-07-27T23:55:23.344Z,3.63
2022-07-27T23:57:25.514Z,3.83
2022-07-27T23:59:27.356Z,4.03
